CheckWX is a tool to help pilots better visualize weather data.  It is not intended as a substitute for an official pre-flight weather briefing.

17:15:02 UTC

KHRL TAF
Valley International Airport
Harlingen, Texas, USA
KHRL 181615Z 1816/1912 14010KT P6SM FEW023 BKN040 FM181900 13013G18KT P6SM SCT045 FM190200 15007KT P6SM FEW250

Jun-18@
16:00 UTC

Jun-18 @ 16:00 UTC

Jun-18@
19:00 UTC

Jun-18 @ 19:00 UTC

KHRL 181615Z 1816/1912 14010KT P6SM FEW023 BKN040
Wind
  • 140° at 10 KTS
Cloud Levels
  • Few at 2,300' AGL
  • Broken at 4,000' AGL

Jun-18@
19:00 UTC

Jun-18 @ 19:00 UTC

Jun-19@
02:00 UTC

Jun-19 @ 02:00 UTC

FM181900 13013G18KT P6SM SCT045

From

From Standard forecast or significant change

Wind
  • 130° at 13 KTS
  • {Gusting to 18 KTS
Cloud Levels
  • Scattered at 4,500' AGL

Jun-19@
02:00 UTC

Jun-19 @ 02:00 UTC

Jun-19@
12:00 UTC

Jun-19 @ 12:00 UTC

FM190200 15007KT P6SM FEW250

From

From Standard forecast or significant change

Wind
  • 150° at 7 KTS
Cloud Levels
  • Few at 25,000' AGL